Time;durP1;ratioP1;P1;durP2;ratioP2;P2;SDS_P1;SDS_P2;PMS_P1;PMS_P2;Temp;Humidity;BMP_temperature;BMP_pressure;BME280_temperature;BME280_humidity;BME280_pressure;Samples;Min_cycle;Max_cycle;Signal;HPM_P1;HPM_P2
2021/12/30 00:02:16;;;;;;;4.80;1.00;;;13.60;99.90;;;;;;5009958;28;20890;-53
2021/12/30 00:04:42;;;;;;;3.10;0.60;;;13.60;99.90;;;;;;5004603;28;20483;-53
2021/12/30 00:07:09;;;;;;;3.45;0.70;;;13.60;99.90;;;;;;5004174;28;20523;-53
2021/12/30 00:09:36;;;;;;;3.20;0.77;;;13.60;99.90;;;;;;5005574;28;20404;-52
2021/12/30 00:12:03;;;;;;;3.53;0.70;;;13.60;99.90;;;;;;5008428;28;20519;-53
2021/12/30 00:14:28;;;;;;;3.27;0.90;;;13.60;99.90;;;;;;5000996;28;20416;-53
2021/12/30 00:16:54;;;;;;;4.45;0.82;;;13.60;99.90;;;;;;5021711;28;20404;-53
2021/12/30 00:19:20;;;;;;;5.33;0.70;;;13.60;99.90;;;;;;5007451;28;20464;-53
2021/12/30 00:21:45;;;;;;;3.60;0.80;;;13.50;99.90;;;;;;5009260;28;20774;-53
2021/12/30 00:24:12;;;;;;;4.10;0.70;;;13.60;99.90;;;;;;5008522;28;20491;-53
2021/12/30 00:26:37;;;;;;;4.13;1.00;;;13.50;99.90;;;;;;5007902;28;20385;-53
2021/12/30 00:29:03;;;;;;;4.30;1.10;;;13.70;99.90;;;;;;5011391;28;20412;-53
2021/12/30 00:31:29;;;;;;;4.37;1.20;;;13.50;99.90;;;;;;5008281;28;20432;-53
2021/12/30 00:33:55;;;;;;;3.47;1.00;;;13.50;99.90;;;;;;5010461;28;20811;-53
2021/12/30 00:36:21;;;;;;;4.25;1.00;;;13.50;99.90;;;;;;5010324;28;20424;-53
2021/12/30 00:38:47;;;;;;;4.10;0.90;;;13.50;99.90;;;;;;5010475;28;20504;-53
2021/12/30 00:41:13;;;;;;;5.60;1.20;;;13.50;99.90;;;;;;5010151;28;20385;-53
2021/12/30 00:43:39;;;;;;;3.78;1.00;;;13.50;99.90;;;;;;5010381;28;21172;-52
2021/12/30 00:46:06;;;;;;;4.25;1.10;;;13.50;99.90;;;;;;5010874;28;20381;-53
2021/12/30 00:48:32;;;;;;;4.35;0.82;;;13.40;99.90;;;;;;5005177;28;20451;-53
2021/12/30 00:50:58;;;;;;;4.60;1.00;;;13.40;99.90;;;;;;5007318;28;20875;-53
2021/12/30 00:53:24;;;;;;;3.60;1.10;;;13.40;99.90;;;;;;5008339;28;20416;-53
2021/12/30 00:55:50;;;;;;;5.20;1.20;;;13.40;99.90;;;;;;5007358;28;20398;-53
2021/12/30 00:58:16;;;;;;;6.30;1.10;;;13.40;99.90;;;;;;4991506;28;20477;-53
2021/12/30 01:00:43;;;;;;;4.78;0.98;;;13.30;99.90;;;;;;4991381;28;20403;-53
2021/12/30 01:03:10;;;;;;;4.40;0.90;;;13.20;99.90;;;;;;4991638;28;20864;-53
2021/12/30 01:05:36;;;;;;;4.20;1.00;;;13.30;99.90;;;;;;5003131;28;20491;-53
2021/12/30 01:08:03;;;;;;;4.22;0.90;;;13.20;99.90;;;;;;5010032;28;20897;-53
2021/12/30 01:10:30;;;;;;;5.10;0.90;;;13.20;99.90;;;;;;5004462;28;20402;-53
2021/12/30 01:13:00;;;;;;;4.45;1.00;;;13.20;99.90;;;;;;5001615;28;20389;-53
2021/12/30 01:15:34;;;;;;;4.60;1.10;;;13.20;99.90;;;;;;4993081;28;20854;-53
2021/12/30 01:20:47;;;;;;;3.60;0.93;;;13.30;99.90;;;;;;5003201;28;20431;-53
2021/12/30 01:23:13;;;;;;;4.90;1.00;;;13.30;99.90;;;;;;5010944;28;20388;-53
2021/12/30 01:25:38;;;;;;;3.95;1.00;;;13.20;99.90;;;;;;5010111;28;20396;-53
2021/12/30 01:28:04;;;;;;;4.45;1.10;;;13.30;99.90;;;;;;5009975;28;20860;-53
2021/12/30 01:30:30;;;;;;;4.10;1.10;;;13.30;99.90;;;;;;5004166;28;20512;-53
2021/12/30 01:32:55;;;;;;;4.70;1.10;;;13.30;99.90;;;;;;5010409;28;20479;-53
2021/12/30 01:35:25;;;;;;;3.97;0.90;;;13.30;99.90;;;;;;5009272;28;20857;-53
2021/12/30 01:37:51;;;;;;;3.40;0.90;;;13.40;99.90;;;;;;5008259;28;20405;-52
2021/12/30 01:40:18;;;;;;;4.57;0.80;;;13.40;99.90;;;;;;5005058;28;20467;-53
2021/12/30 01:42:45;;;;;;;4.10;1.02;;;13.30;99.90;;;;;;5009301;28;20381;-53
2021/12/30 01:45:12;;;;;;;5.88;1.17;;;13.30;99.90;;;;;;5007927;28;20472;-53
2021/12/30 01:47:42;;;;;;;4.30;1.10;;;13.30;99.90;;;;;;5007273;28;20393;-53
2021/12/30 01:50:09;;;;;;;5.00;1.00;;;13.30;99.90;;;;;;5007183;28;20480;-53
2021/12/30 01:52:34;;;;;;;4.55;1.70;;;13.40;99.90;;;;;;5009164;28;20393;-53
2021/12/30 01:55:00;;;;;;;4.70;1.10;;;13.40;99.90;;;;;;5008458;28;20403;-53
2021/12/30 01:57:26;;;;;;;3.83;1.40;;;13.30;99.90;;;;;;4997409;28;20428;-53
2021/12/30 01:59:52;;;;;;;4.60;1.00;;;13.30;99.90;;;;;;5004385;28;20413;-53
2021/12/30 02:02:17;;;;;;;5.07;0.93;;;13.30;99.90;;;;;;5005779;28;20773;-53
2021/12/30 02:04:43;;;;;;;6.35;1.15;;;13.20;99.90;;;;;;5007452;28;20420;-53
2021/12/30 02:07:09;;;;;;;4.90;1.00;;;13.20;99.90;;;;;;5005337;28;20818;-53
2021/12/30 02:09:35;;;;;;;3.63;0.90;;;13.20;99.90;;;;;;5007103;28;20397;-53
2021/12/30 02:12:02;;;;;;;4.03;1.00;;;13.20;99.90;;;;;;5009522;28;20389;-53
2021/12/30 02:14:32;;;;;;;4.20;1.00;;;13.20;99.90;;;;;;5008731;28;20471;-52
2021/12/30 02:16:58;;;;;;;5.13;0.90;;;13.20;99.90;;;;;;5008782;28;20393;-53
2021/12/30 02:19:23;;;;;;;4.70;0.80;;;13.20;99.90;;;;;;5005721;28;20486;-53
2021/12/30 02:21:49;;;;;;;5.50;1.35;;;13.20;99.90;;;;;;5007331;28;20404;-52
2021/12/30 02:24:15;;;;;;;6.33;0.97;;;13.20;99.90;;;;;;5007461;28;20401;-53
2021/12/30 02:26:40;;;;;;;4.00;1.02;;;13.20;99.90;;;;;;5008532;28;20388;-53
2021/12/30 02:29:12;;;;;;;4.20;0.90;;;13.20;99.90;;;;;;5009398;28;20417;-53
2021/12/30 02:31:39;;;;;;;5.80;1.20;;;13.30;99.90;;;;;;5005906;28;20513;-53
2021/12/30 02:34:05;;;;;;;5.32;1.10;;;13.20;99.90;;;;;;5001379;28;20412;-53
2021/12/30 02:36:34;;;;;;;4.00;0.97;;;13.30;99.90;;;;;;5006644;28;20400;-53
2021/12/30 02:39:04;;;;;;;3.83;1.10;;;13.30;99.90;;;;;;5005500;28;20444;-53
2021/12/30 02:41:33;;;;;;;6.70;1.15;;;13.40;99.90;;;;;;5003033;28;20404;-53
2021/12/30 02:44:00;;;;;;;4.40;0.80;;;13.40;99.90;;;;;;5007082;28;20403;-53
2021/12/30 02:46:28;;;;;;;6.20;0.93;;;13.30;99.90;;;;;;5004465;28;20439;-53
2021/12/30 02:48:58;;;;;;;7.30;1.10;;;13.30;99.90;;;;;;5007722;28;20464;-53
2021/12/30 02:51:25;;;;;;;3.80;0.90;;;13.30;99.90;;;;;;5007914;28;20387;-53
2021/12/30 02:53:51;;;;;;;3.30;0.90;;;13.40;99.90;;;;;;5006543;28;20389;-53
2021/12/30 02:56:18;;;;;;;8.43;1.10;;;13.40;99.90;;;;;;5008787;28;20388;-53
2021/12/30 02:58:44;;;;;;;3.80;0.90;;;13.40;99.90;;;;;;5004125;28;20450;-54
2021/12/30 03:01:20;;;;;;;3.70;0.90;;;13.40;99.90;;;;;;5002770;28;20434;-54
2021/12/30 03:03:46;;;;;;;3.70;0.80;;;13.50;99.90;;;;;;5003973;28;20408;-53
2021/12/30 03:06:13;;;;;;;3.67;0.95;;;13.50;99.90;;;;;;5008878;28;20438;-53
2021/12/30 03:08:40;;;;;;;3.50;0.90;;;13.60;99.90;;;;;;5008055;28;20392;-53
2021/12/30 03:11:06;;;;;;;3.63;0.80;;;13.60;99.90;;;;;;5006339;28;20428;-53
2021/12/30 03:13:34;;;;;;;3.25;0.80;;;13.60;99.90;;;;;;5008129;28;20416;-53
2021/12/30 03:16:22;;;;;;;4.05;0.85;;;13.60;99.90;;;;;;5008694;28;20434;-53
2021/12/30 03:18:49;;;;;;;4.10;1.10;;;13.70;99.90;;;;;;5006798;28;20413;-53
2021/12/30 03:21:18;;;;;;;3.78;1.15;;;13.70;99.90;;;;;;5004933;28;20781;-53
2021/12/30 03:23:44;;;;;;;4.50;0.90;;;13.80;99.90;;;;;;5005558;28;20502;-53
2021/12/30 03:26:10;;;;;;;4.75;1.10;;;13.80;99.90;;;;;;5007417;28;20465;-53
2021/12/30 03:28:39;;;;;;;3.83;0.88;;;13.70;99.90;;;;;;5011096;28;20483;-53
2021/12/30 03:31:10;;;;;;;3.30;0.80;;;13.70;99.90;;;;;;5009623;28;20470;-53
2021/12/30 03:33:36;;;;;;;4.00;0.80;;;13.70;99.90;;;;;;5008664;28;20397;-53
2021/12/30 03:36:04;;;;;;;4.10;1.00;;;13.80;99.90;;;;;;5011899;28;20782;-51
2021/12/30 03:38:33;;;;;;;4.40;1.00;;;13.70;99.90;;;;;;5011560;28;20409;-52
2021/12/30 03:40:59;;;;;;;4.25;0.70;;;13.80;99.90;;;;;;5012033;28;20400;-52
2021/12/30 03:43:26;;;;;;;3.20;0.80;;;13.90;99.90;;;;;;5006836;28;20431;-52
2021/12/30 03:45:52;;;;;;;4.30;1.05;;;13.90;99.90;;;;;;5012159;28;20412;-52
2021/12/30 03:48:18;;;;;;;3.40;0.70;;;13.90;99.90;;;;;;5011951;28;20463;-52
2021/12/30 03:50:45;;;;;;;4.40;1.10;;;14.00;99.90;;;;;;5011111;28;20854;-52
2021/12/30 03:53:15;;;;;;;3.20;0.80;;;13.90;99.90;;;;;;5012149;28;20392;-52
2021/12/30 03:55:41;;;;;;;3.90;0.88;;;13.90;99.90;;;;;;5011547;28;20380;-52
2021/12/30 03:58:07;;;;;;;3.80;0.90;;;13.90;99.90;;;;;;5012064;28;20516;-52
2021/12/30 04:00:35;;;;;;;3.35;0.77;;;13.90;99.90;;;;;;5010438;28;20824;-52
2021/12/30 04:03:00;;;;;;;3.60;0.70;;;14.00;99.90;;;;;;5009553;28;20397;-52
2021/12/30 04:05:26;;;;;;;4.10;0.70;;;14.00;99.90;;;;;;5010287;28;20385;-52
2021/12/30 04:07:52;;;;;;;3.80;0.85;;;14.00;99.90;;;;;;5006071;28;20425;-52
2021/12/30 04:10:21;;;;;;;3.97;0.77;;;14.00;99.90;;;;;;5006039;28;20483;-52
2021/12/30 04:12:49;;;;;;;5.00;0.70;;;14.00;99.90;;;;;;5012111;28;20855;-52
2021/12/30 04:15:14;;;;;;;3.70;0.70;;;14.10;99.90;;;;;;5011983;28;20435;-51
2021/12/30 04:17:40;;;;;;;4.70;0.63;;;14.00;99.90;;;;;;5008817;28;21063;-52
2021/12/30 04:20:08;;;;;;;3.40;0.90;;;14.00;99.90;;;;;;5011408;28;20453;-52
2021/12/30 04:22:39;;;;;;;4.10;0.77;;;14.00;99.90;;;;;;5010892;28;20439;-52
2021/12/30 04:25:07;;;;;;;3.30;0.70;;;13.90;99.90;;;;;;4997122;28;20452;-52
2021/12/30 04:27:34;;;;;;;5.40;1.40;;;13.90;99.90;;;;;;4999635;28;20767;-52
2021/12/30 04:29:59;;;;;;;3.10;0.70;;;13.80;99.90;;;;;;4991778;28;20414;-51
2021/12/30 04:32:25;;;;;;;3.50;0.90;;;13.70;99.90;;;;;;4991252;28;20409;-51
2021/12/30 04:34:51;;;;;;;3.20;0.70;;;13.70;99.90;;;;;;4992034;28;20378;-51
2021/12/30 04:37:16;;;;;;;3.50;0.80;;;13.60;99.90;;;;;;4992075;28;20387;-52
2021/12/30 04:39:42;;;;;;;3.50;0.80;;;13.60;99.90;;;;;;4990218;28;20413;-52
2021/12/30 04:42:08;;;;;;;4.53;1.05;;;13.60;99.90;;;;;;4992035;28;20470;-52
2021/12/30 04:44:34;;;;;;;4.83;0.90;;;13.70;99.90;;;;;;4991017;28;20391;-52
2021/12/30 04:47:00;;;;;;;4.20;0.82;;;13.60;99.90;;;;;;4991775;28;20387;-52
2021/12/30 04:49:26;;;;;;;3.70;1.17;;;13.70;99.90;;;;;;4993998;28;20407;-52
2021/12/30 04:51:52;;;;;;;3.10;0.70;;;13.60;99.90;;;;;;5000502;28;20382;-52
2021/12/30 04:54:18;;;;;;;3.20;0.73;;;13.60;99.90;;;;;;4991658;28;20517;-52
2021/12/30 04:56:45;;;;;;;4.50;0.70;;;13.60;99.90;;;;;;4991060;28;20438;-52
2021/12/30 04:59:11;;;;;;;4.10;0.90;;;13.60;99.90;;;;;;4991430;28;20931;-52
2021/12/30 05:01:38;;;;;;;3.30;0.90;;;13.60;99.90;;;;;;4991001;28;20425;-52
2021/12/30 05:04:04;;;;;;;3.35;0.70;;;13.60;99.90;;;;;;4991505;28;20416;-53
2021/12/30 05:06:32;;;;;;;5.00;0.80;;;13.50;99.90;;;;;;4991306;28;20770;-53
2021/12/30 05:08:58;;;;;;;3.47;0.90;;;13.50;99.90;;;;;;5001891;28;20390;-53
2021/12/30 05:11:24;;;;;;;5.50;1.30;;;13.50;99.90;;;;;;4999921;28;20388;-53
2021/12/30 05:13:49;;;;;;;3.95;0.90;;;13.50;99.90;;;;;;4997584;28;20410;-53
2021/12/30 05:16:16;;;;;;;3.20;0.80;;;13.40;99.90;;;;;;4991351;28;20878;-53
2021/12/30 05:18:42;;;;;;;5.10;0.90;;;13.30;99.90;;;;;;4990326;28;20975;-53
2021/12/30 05:21:08;;;;;;;3.60;0.85;;;13.30;99.90;;;;;;4991539;28;20383;-53
2021/12/30 05:23:33;;;;;;;3.80;0.80;;;13.40;99.90;;;;;;4990556;28;20464;-52
2021/12/30 05:25:59;;;;;;;3.90;0.80;;;13.40;99.90;;;;;;4991345;28;20426;-52
2021/12/30 05:28:25;;;;;;;4.80;0.90;;;13.30;99.90;;;;;;4989477;28;20689;-52
2021/12/30 05:30:51;;;;;;;3.80;1.00;;;13.20;99.90;;;;;;4991077;28;20418;-52
2021/12/30 05:33:16;;;;;;;3.30;0.80;;;13.20;99.90;;;;;;4990635;28;20391;-52
2021/12/30 05:35:42;;;;;;;3.20;0.60;;;13.30;99.90;;;;;;4990007;28;20398;-52
2021/12/30 05:38:08;;;;;;;4.18;0.90;;;13.20;99.90;;;;;;4991106;28;20411;-52
2021/12/30 05:40:34;;;;;;;3.15;0.77;;;13.20;99.90;;;;;;4990629;28;20428;-52
2021/12/30 05:43:01;;;;;;;3.40;0.80;;;13.10;99.90;;;;;;4990970;28;20430;-52
2021/12/30 05:45:27;;;;;;;3.10;0.70;;;13.10;99.90;;;;;;4990578;28;20406;-52
2021/12/30 05:47:54;;;;;;;4.10;0.80;;;13.10;99.90;;;;;;4990938;28;20394;-54
2021/12/30 05:50:23;;;;;;;2.83;0.60;;;13.00;99.90;;;;;;4990784;28;20379;-52
2021/12/30 05:52:49;;;;;;;3.65;0.68;;;13.10;99.90;;;;;;4990862;28;20435;-52
2021/12/30 05:55:16;;;;;;;3.53;1.00;;;13.20;99.90;;;;;;4991021;28;20417;-52
2021/12/30 05:57:43;;;;;;;3.45;0.85;;;13.10;99.90;;;;;;4990263;28;20413;-52
2021/12/30 06:00:13;;;;;;;5.80;0.80;;;13.20;99.90;;;;;;4990921;28;20776;-52
2021/12/30 06:02:39;;;;;;;3.87;1.40;;;13.30;99.90;;;;;;4990208;28;20391;-53
2021/12/30 06:05:05;;;;;;;3.10;0.70;;;13.20;99.90;;;;;;4991135;28;20401;-53
2021/12/30 06:07:31;;;;;;;4.70;0.60;;;13.20;99.90;;;;;;4990261;28;20859;-53
2021/12/30 06:09:57;;;;;;;2.90;0.60;;;13.20;99.90;;;;;;4990607;28;20496;-52
2021/12/30 06:12:22;;;;;;;3.70;0.70;;;13.20;99.90;;;;;;4990559;28;20390;-52
2021/12/30 06:14:48;;;;;;;3.92;0.73;;;13.30;99.90;;;;;;4990365;28;20401;-52
2021/12/30 06:17:15;;;;;;;3.40;0.60;;;13.40;99.90;;;;;;4990159;28;20374;-53
2021/12/30 06:19:42;;;;;;;3.42;0.70;;;13.40;99.90;;;;;;4989790;28;20971;-52
2021/12/30 06:22:09;;;;;;;3.47;0.85;;;14.30;99.90;;;;;;4990740;28;20418;-53
2021/12/30 06:24:34;;;;;;;3.90;1.00;;;13.40;99.90;;;;;;4989443;28;20875;-53
2021/12/30 06:27:00;;;;;;;3.20;0.70;;;13.40;99.90;;;;;;4990346;28;20441;-52
2021/12/30 06:29:26;;;;;;;4.30;0.60;;;13.40;99.90;;;;;;5000165;28;20779;-53
2021/12/30 06:31:51;;;;;;;3.03;0.50;;;13.40;99.90;;;;;;5008867;28;20476;-53
2021/12/30 06:34:17;;;;;;;4.45;0.70;;;13.40;99.90;;;;;;5007120;28;20389;-53
2021/12/30 06:36:43;;;;;;;3.80;0.50;;;13.40;99.90;;;;;;5001965;28;20404;-52
2021/12/30 06:39:09;;;;;;;3.67;0.50;;;13.40;99.90;;;;;;5005122;28;20425;-53
2021/12/30 06:41:35;;;;;;;3.30;0.57;;;13.40;99.90;;;;;;4999683;28;20392;-52
2021/12/30 06:44:00;;;;;;;2.80;0.40;;;13.40;99.90;;;;;;5003836;28;20421;-53
2021/12/30 06:46:26;;;;;;;2.90;0.50;;;13.40;99.90;;;;;;5007152;28;20435;-53
2021/12/30 06:48:52;;;;;;;4.80;0.40;;;13.50;99.90;;;;;;5006157;28;20893;-53
2021/12/30 06:51:21;;;;;;;3.10;0.40;;;13.50;99.90;;;;;;5003952;28;21446;-52
2021/12/30 06:53:47;;;;;;;3.20;0.50;;;13.40;99.90;;;;;;5007491;28;20377;-52
2021/12/30 06:56:13;;;;;;;4.30;0.50;;;13.40;99.90;;;;;;5002702;28;20463;-52
2021/12/30 06:58:39;;;;;;;2.90;0.50;;;13.30;99.90;;;;;;5004203;28;20416;-52
2021/12/30 07:01:04;;;;;;;2.80;0.40;;;13.20;99.90;;;;;;5009638;28;20403;-53
2021/12/30 07:03:30;;;;;;;2.97;0.50;;;13.20;99.90;;;;;;5002087;28;20397;-52
2021/12/30 07:05:56;;;;;;;2.80;0.40;;;13.20;99.90;;;;;;5019676;28;20620;-52
2021/12/30 07:08:22;;;;;;;5.70;0.40;;;13.20;99.90;;;;;;5019741;28;20480;-53
2021/12/30 07:10:49;;;;;;;3.40;0.47;;;13.20;99.90;;;;;;5009974;28;20850;-51
2021/12/30 07:13:14;;;;;;;3.63;0.50;;;13.20;99.90;;;;;;5005471;28;20803;-51
2021/12/30 07:15:40;;;;;;;3.67;0.35;;;13.20;99.90;;;;;;5002496;28;20394;-51
2021/12/30 07:18:06;;;;;;;2.70;0.50;;;13.30;99.90;;;;;;5012873;28;20420;-52
2021/12/30 07:20:31;;;;;;;2.90;0.70;;;13.20;99.90;;;;;;5012387;28;20411;-51
2021/12/30 07:22:57;;;;;;;3.60;0.70;;;13.10;99.90;;;;;;5007165;28;20385;-51
2021/12/30 07:25:23;;;;;;;2.70;0.40;;;13.20;99.90;;;;;;4998091;28;20417;-54
2021/12/30 07:27:52;;;;;;;4.70;0.60;;;13.20;99.90;;;;;;4997695;28;20420;-54
2021/12/30 07:30:20;;;;;;;3.88;0.50;;;13.30;99.90;;;;;;5012299;28;20428;-51
2021/12/30 07:32:46;;;;;;;2.80;0.40;;;13.30;99.90;;;;;;5002893;28;20466;-53
2021/12/30 07:35:15;;;;;;;2.90;0.50;;;13.30;99.90;;;;;;5000558;28;20409;-53
2021/12/30 07:37:41;;;;;;;2.60;0.40;;;13.20;99.90;;;;;;4997417;28;20420;-52
2021/12/30 07:40:07;;;;;;;2.88;0.50;;;13.30;99.90;;;;;;5005108;28;20810;-52
2021/12/30 07:42:33;;;;;;;3.40;0.57;;;13.30;99.90;;;;;;4993558;28;21228;-53
2021/12/30 07:44:58;;;;;;;4.30;0.70;;;13.30;99.90;;;;;;4994836;28;20548;-53
2021/12/30 07:47:24;;;;;;;3.22;0.35;;;13.30;99.90;;;;;;4993677;28;20393;-53
2021/12/30 07:49:50;;;;;;;2.70;0.40;;;13.30;99.90;;;;;;4994777;28;20504;-53
2021/12/30 07:52:16;;;;;;;5.50;0.70;;;13.40;99.90;;;;;;4995392;28;20457;-52
2021/12/30 07:54:43;;;;;;;4.43;0.50;;;13.40;99.90;;;;;;4999705;28;20396;-52
2021/12/30 07:57:10;;;;;;;3.50;0.80;;;13.40;99.90;;;;;;4994455;28;20998;-52
2021/12/30 07:59:36;;;;;;;3.00;0.45;;;13.40;99.90;;;;;;4998179;28;20441;-53
2021/12/30 08:02:01;;;;;;;3.00;0.57;;;13.40;99.90;;;;;;4998783;28;20402;-52
2021/12/30 08:04:27;;;;;;;3.40;0.50;;;13.40;99.90;;;;;;4998139;28;20453;-52
2021/12/30 08:06:53;;;;;;;3.70;0.50;;;13.40;99.90;;;;;;4995980;28;20851;-52
2021/12/30 08:09:18;;;;;;;3.40;0.40;;;13.40;99.90;;;;;;4999267;28;20410;-52
2021/12/30 08:11:44;;;;;;;3.00;0.50;;;13.50;99.90;;;;;;5002722;28;21193;-53
2021/12/30 08:14:09;;;;;;;2.90;0.60;;;13.60;99.90;;;;;;4998222;28;20404;-52
2021/12/30 08:16:35;;;;;;;3.90;0.50;;;13.70;99.90;;;;;;4993759;28;20870;-52
2021/12/30 08:19:01;;;;;;;3.80;0.40;;;13.60;99.90;;;;;;4997816;28;20838;-52
2021/12/30 08:21:26;;;;;;;3.60;0.30;;;13.60;99.90;;;;;;5006076;28;20451;-53
2021/12/30 08:23:53;;;;;;;3.50;0.40;;;13.60;99.90;;;;;;4997594;28;20731;-52
2021/12/30 08:26:19;;;;;;;2.75;0.40;;;13.50;99.90;;;;;;4999027;28;20395;-52
2021/12/30 08:28:45;;;;;;;2.80;0.40;;;13.60;99.90;;;;;;4996137;28;20539;-53
2021/12/30 08:31:11;;;;;;;3.40;0.50;;;13.60;99.90;;;;;;4993556;28;20581;-52
2021/12/30 08:33:37;;;;;;;4.32;0.50;;;13.60;99.90;;;;;;4991825;28;20495;-52
2021/12/30 08:36:03;;;;;;;3.90;0.60;;;13.60;99.90;;;;;;5001486;28;20419;-53
2021/12/30 08:38:29;;;;;;;3.10;0.50;;;13.60;99.90;;;;;;4995977;28;20513;-52
2021/12/30 08:40:55;;;;;;;3.70;0.50;;;13.60;99.90;;;;;;5006355;28;20416;-52
2021/12/30 08:43:21;;;;;;;3.40;0.63;;;13.60;99.90;;;;;;5011291;28;20389;-52
2021/12/30 08:45:47;;;;;;;3.50;0.70;;;13.60;99.90;;;;;;5008628;28;20412;-52
2021/12/30 08:48:15;;;;;;;3.00;0.40;;;13.60;99.90;;;;;;4995720;28;20529;-52
2021/12/30 08:50:41;;;;;;;3.20;0.60;;;13.70;99.90;;;;;;5002797;28;20425;-52
2021/12/30 08:53:08;;;;;;;3.50;0.60;;;13.80;99.90;;;;;;4993919;28;20407;-52
2021/12/30 08:55:35;;;;;;;3.05;0.63;;;13.90;99.90;;;;;;4999506;28;20459;-52
2021/12/30 08:58:01;;;;;;;3.10;0.50;;;14.10;99.90;;;;;;4998400;28;20421;-52
2021/12/30 09:00:30;;;;;;;3.00;0.50;;;14.20;99.90;;;;;;4992800;28;20420;-52
2021/12/30 09:02:58;;;;;;;3.30;0.50;;;14.30;99.90;;;;;;4991280;28;20414;-53
2021/12/30 09:05:25;;;;;;;2.95;0.50;;;14.50;99.90;;;;;;4991403;28;20406;-52
2021/12/30 09:07:51;;;;;;;3.08;0.60;;;14.70;99.90;;;;;;5004522;28;20420;-52
2021/12/30 09:10:18;;;;;;;3.40;0.70;;;15.00;99.90;;;;;;4992794;28;20412;-53
2021/12/30 09:12:46;;;;;;;3.10;0.50;;;15.20;99.90;;;;;;4998389;28;20426;-53
2021/12/30 09:15:14;;;;;;;4.70;0.80;;;15.10;99.90;;;;;;4999857;28;20413;-53
2021/12/30 09:17:43;;;;;;;3.80;0.68;;;15.50;99.90;;;;;;5000979;28;20412;-52
2021/12/30 09:20:09;;;;;;;3.63;0.60;;;15.50;99.90;;;;;;4999095;28;20427;-53
2021/12/30 09:22:36;;;;;;;3.60;0.70;;;15.70;99.90;;;;;;4995673;28;20410;-53
2021/12/30 09:25:06;;;;;;;3.47;0.70;;;16.00;99.90;;;;;;5005154;28;20405;-53
2021/12/30 09:27:35;;;;;;;3.40;0.60;;;16.50;99.90;;;;;;5009399;28;20428;-53
2021/12/30 09:30:03;;;;;;;3.55;0.70;;;16.90;99.90;;;;;;5009966;28;20459;-53
2021/12/30 09:32:28;;;;;;;3.85;0.50;;;17.10;99.90;;;;;;4999282;28;20417;-53
2021/12/30 09:34:54;;;;;;;3.50;0.70;;;17.40;99.90;;;;;;4991689;28;20425;-53
2021/12/30 09:37:20;;;;;;;3.78;0.70;;;17.40;99.90;;;;;;4989810;28;20470;-53
2021/12/30 09:39:46;;;;;;;3.93;0.60;;;17.20;99.90;;;;;;4993476;28;20475;-53
2021/12/30 09:42:13;;;;;;;5.50;0.80;;;16.80;99.90;;;;;;4993783;28;20414;-54
2021/12/30 09:44:39;;;;;;;3.30;0.60;;;16.10;99.90;;;;;;5000196;28;20522;-53
2021/12/30 09:47:05;;;;;;;3.20;0.50;;;16.50;99.90;;;;;;5002078;28;20401;-53
2021/12/30 09:49:31;;;;;;;3.53;0.60;;;16.40;99.90;;;;;;4996951;28;20418;-53
2021/12/30 09:51:57;;;;;;;3.40;0.50;;;16.40;99.90;;;;;;4997110;28;20410;-53
2021/12/30 09:54:23;;;;;;;3.80;0.60;;;16.50;99.90;;;;;;4989219;28;20477;-54
2021/12/30 09:56:50;;;;;;;3.50;0.60;;;16.70;99.90;;;;;;4988144;28;20900;-54
2021/12/30 09:59:16;;;;;;;3.40;0.60;;;16.70;99.90;;;;;;4990110;28;20438;-54
2021/12/30 10:01:42;;;;;;;3.30;0.50;;;16.80;99.90;;;;;;4994044;28;20391;-54
2021/12/30 10:04:10;;;;;;;3.47;0.70;;;17.30;99.90;;;;;;4991557;28;20405;-54
2021/12/30 10:06:48;;;;;;;3.50;0.60;;;17.70;99.90;;;;;;4988343;28;20840;-54
2021/12/30 10:09:15;;;;;;;3.40;0.50;;;18.00;99.90;;;;;;4990525;28;20410;-54
2021/12/30 10:11:51;;;;;;;3.70;0.63;;;17.80;99.90;;;;;;4989264;28;20630;-55
2021/12/30 10:14:32;;;;;;;3.45;0.60;;;17.60;99.90;;;;;;4991900;28;20422;-55
2021/12/30 10:17:21;;;;;;;3.47;0.70;;;17.50;99.90;;;;;;4988479;28;20489;-54
2021/12/30 10:19:48;;;;;;;3.60;0.60;;;17.20;99.90;;;;;;4997011;28;20538;-54
2021/12/30 10:22:23;;;;;;;3.60;0.70;;;17.10;99.90;;;;;;4995906;28;20482;-54
2021/12/30 10:24:50;;;;;;;4.10;0.50;;;17.10;99.90;;;;;;4996081;28;20416;-54
2021/12/30 10:27:24;;;;;;;4.00;0.60;;;17.10;99.90;;;;;;4993229;28;20424;-54
2021/12/30 10:29:50;;;;;;;3.60;0.50;;;17.00;99.90;;;;;;4988306;28;20555;-53
2021/12/30 10:32:23;;;;;;;3.38;0.60;;;17.00;99.90;;;;;;5004064;28;20390;-54
2021/12/30 10:35:11;;;;;;;3.30;0.50;;;17.20;99.90;;;;;;4998192;28;20443;-54
2021/12/30 10:37:38;;;;;;;3.20;0.60;;;17.60;99.90;;;;;;5004589;28;20400;-54
2021/12/30 10:40:28;;;;;;;3.20;0.40;;;17.70;99.90;;;;;;5005675;28;20815;-53
2021/12/30 10:43:12;;;;;;;3.40;0.50;;;17.30;99.90;;;;;;4995988;28;20401;-53
2021/12/30 10:45:37;;;;;;;3.50;0.70;;;17.40;99.90;;;;;;4997644;28;20407;-53
2021/12/30 10:48:03;;;;;;;3.38;0.60;;;17.40;99.90;;;;;;4998043;28;20914;-53
2021/12/30 10:50:29;;;;;;;4.57;0.50;;;17.30;99.90;;;;;;5004361;28;20404;-54
2021/12/30 10:52:56;;;;;;;3.20;0.40;;;17.30;99.90;;;;;;5008739;28;20415;-53
2021/12/30 10:55:23;;;;;;;3.20;0.50;;;17.40;99.90;;;;;;5000211;28;20814;-53
2021/12/30 10:57:49;;;;;;;3.20;0.50;;;17.40;99.90;;;;;;4999289;28;20414;-53
2021/12/30 11:00:25;;;;;;;3.20;0.50;;;17.50;99.90;;;;;;4994815;28;20406;-54
2021/12/30 11:02:51;;;;;;;4.70;0.60;;;17.70;99.90;;;;;;4997953;28;20404;-54
2021/12/30 11:05:18;;;;;;;3.40;0.40;;;17.90;99.90;;;;;;5000678;28;20409;-54
2021/12/30 11:07:51;;;;;;;3.20;0.47;;;17.60;99.90;;;;;;4995375;28;20412;-53
2021/12/30 11:10:32;;;;;;;3.05;0.30;;;17.20;99.90;;;;;;5002915;28;20400;-54
2021/12/30 11:13:12;;;;;;;3.20;0.40;;;17.00;99.90;;;;;;5006769;28;20397;-54
2021/12/30 11:15:39;;;;;;;3.40;0.40;;;17.10;99.90;;;;;;4997057;28;20926;-54
2021/12/30 11:18:07;;;;;;;3.20;0.40;;;16.90;99.90;;;;;;4996026;28;20412;-54
2021/12/30 11:20:42;;;;;;;3.20;0.40;;;16.80;99.90;;;;;;4999514;28;20463;-53
2021/12/30 11:23:09;;;;;;;3.10;0.40;;;16.90;99.90;;;;;;5008264;28;20751;-54
2021/12/30 11:25:35;;;;;;;3.20;0.40;;;16.90;99.90;;;;;;5007853;28;20858;-55
2021/12/30 11:28:01;;;;;;;3.70;0.40;;;16.70;99.90;;;;;;5008408;28;20439;-53
2021/12/30 11:30:27;;;;;;;4.90;0.50;;;16.50;99.90;;;;;;5006388;28;20409;-54
2021/12/30 11:32:53;;;;;;;3.10;0.30;;;16.60;99.90;;;;;;5003723;28;20484;-53
2021/12/30 11:35:21;;;;;;;3.20;0.50;;;16.70;99.90;;;;;;5008527;28;20885;-54
2021/12/30 11:37:47;;;;;;;3.50;0.50;;;16.80;99.90;;;;;;5007863;28;20404;-54
2021/12/30 11:40:17;;;;;;;3.10;0.40;;;17.00;99.90;;;;;;4999817;28;20426;-54
2021/12/30 11:42:52;;;;;;;3.30;0.60;;;17.10;99.90;;;;;;4993779;28;20480;-54
2021/12/30 11:45:30;;;;;;;3.78;0.50;;;17.20;99.90;;;;;;4991138;28;20949;-54
2021/12/30 11:47:58;;;;;;;3.30;0.50;;;17.40;99.90;;;;;;5003428;28;20904;-53
2021/12/30 11:50:26;;;;;;;3.20;0.45;;;17.40;99.90;;;;;;5000148;28;20787;-54
2021/12/30 11:52:54;;;;;;;3.20;0.40;;;17.40;99.90;;;;;;4996892;28;20398;-54
2021/12/30 11:55:44;;;;;;;3.20;0.40;;;17.30;99.90;;;;;;4999170;28;20414;-54
2021/12/30 12:01:21;;;;;;;3.50;0.50;;;17.10;99.90;;;;;;4997422;28;20926;-54
2021/12/30 12:03:58;;;;;;;3.30;0.40;;;17.30;99.90;;;;;;4995512;28;20403;-54
2021/12/30 12:06:27;;;;;;;3.10;0.40;;;17.20;99.90;;;;;;4998973;28;20476;-54
2021/12/30 12:09:03;;;;;;;3.20;0.50;;;17.20;99.90;;;;;;4999227;28;20437;-54
2021/12/30 12:11:29;;;;;;;3.20;0.40;;;17.10;99.90;;;;;;4997629;28;20453;-54
2021/12/30 12:14:11;;;;;;;3.30;0.40;;;16.90;99.90;;;;;;4999557;28;20423;-53
2021/12/30 12:16:58;;;;;;;3.10;0.30;;;16.80;99.90;;;;;;5004706;28;20405;-53
2021/12/30 12:19:35;;;;;;;3.30;0.50;;;16.90;99.90;;;;;;4997434;28;20410;-53
2021/12/30 12:22:04;;;;;;;3.47;0.40;;;17.10;99.90;;;;;;5003724;28;20408;-53
2021/12/30 12:24:37;;;;;;;3.10;0.40;;;17.10;99.90;;;;;;5001395;28;20412;-54
2021/12/30 12:27:23;;;;;;;3.10;0.40;;;17.00;99.90;;;;;;5022017;28;20440;-54
2021/12/30 12:29:57;;;;;;;3.20;0.40;;;17.10;99.90;;;;;;4997778;28;20929;-53
2021/12/30 12:32:34;;;;;;;3.20;0.40;;;17.00;99.90;;;;;;5005280;28;20426;-53
2021/12/30 12:35:24;;;;;;;3.40;0.50;;;17.00;99.90;;;;;;5007614;28;20943;-53
2021/12/30 12:37:53;;;;;;;3.10;0.30;;;16.80;99.90;;;;;;5010131;28;20421;-53
2021/12/30 12:40:27;;;;;;;3.83;0.40;;;16.50;99.90;;;;;;5008481;28;20475;-53
2021/12/30 12:43:00;;;;;;;3.20;0.40;;;16.30;99.90;;;;;;5004745;28;20763;-53
2021/12/30 12:45:33;;;;;;;3.10;0.40;;;16.30;99.90;;;;;;5005688;28;20500;-54
2021/12/30 12:48:39;;;;;;;3.30;0.40;;;16.40;99.90;;;;;;4999307;28;20441;-52
2021/12/30 12:51:23;;;;;;;3.10;0.47;;;16.50;99.90;;;;;;4971123;28;20453;-52
2021/12/30 12:53:56;;;;;;;3.40;0.70;;;16.50;99.90;;;;;;4996984;28;20448;-52
2021/12/30 12:56:29;;;;;;;3.20;0.40;;;16.60;99.90;;;;;;5003110;28;20406;-53
2021/12/30 12:58:58;;;;;;;3.30;0.40;;;16.70;99.90;;;;;;4993296;28;20496;-53